Aviation Digital Data Service (ADDS)

Output produced by METARs form (1912 UTC 19 April 2019)
found at http://www.aviationweather.gov/metar/data/
 
METAR text: UHHH 191900Z 31002MPS 0200 0150NE R23L/0450D FZFG VV001 M03/M03 Q1012 R23L/290045 NOSIG RMK QBB040 QFE752/1003
Conditions at: UHHH (KHABAROVSK/NOVY , RU) observed 1900 UTC 19 April 2019
Temperature: -3.0°C (27°F)
Dewpoint: -3.0°C (27°F) [RH = 100%]
Pressure (altimeter): 29.88 inches Hg (1012.0 mb)
Winds: from the NW (310 degrees) at 5 MPH (4 knots; 2.1 m/s)
Visibility: 0.12 miles (0.19 km)
Ceiling: indefinite ceiling with vertical visibility of 100 feet AGL
Clouds: obscured sky
Weather: FZFG  (freezing fog)

METAR text: UHHH 191830Z 31001MPS 0150 R23L/0500U FZFG VV001 M04/M04 Q1012 R23L/290045 NOSIG RMK QBB040 QFE752/1003
Conditions at: UHHH (KHABAROVSK/NOVY , RU) observed 1830 UTC 19 April 2019
Temperature: -4.0°C (25°F)
Dewpoint: -4.0°C (25°F) [RH = 100%]
Pressure (altimeter): 29.88 inches Hg (1012.0 mb)
Winds: from the NW (310 degrees) at 2 MPH (2 knots; 1.0 m/s)
Visibility: 0.09 miles (0.14 km)
Ceiling: indefinite ceiling with vertical visibility of 100 feet AGL
Clouds: obscured sky
Weather: FZFG  (freezing fog)

METAR text: UHHH 191800Z 29002MPS 0200 0100NE R23L/0350N FZFG VV001 M03/M03 Q1011 R23L/290045 NOSIG RMK QBB040 QFE752/1003
Conditions at: UHHH (KHABAROVSK/NOVY , RU) observed 1800 UTC 19 April 2019
Temperature: -3.0°C (27°F)
Dewpoint: -3.0°C (27°F) [RH = 100%]
Pressure (altimeter): 29.85 inches Hg (1011.0 mb)
Winds: from the WNW (290 degrees) at 5 MPH (4 knots; 2.1 m/s)
Visibility: 0.12 miles (0.19 km)
Ceiling: indefinite ceiling with vertical visibility of 100 feet AGL
Clouds: obscured sky
Weather: FZFG  (freezing fog)

METAR text: UHHH 191730Z VRB01MPS 0400 0150SE FZFG VV001 M03/M03 Q1011 R23L/290045 NOSIG RMK QBB050 QFE752/1003
Conditions at: UHHH (KHABAROVSK/NOVY , RU) observed 1730 UTC 19 April 2019
Temperature: -3.0°C (27°F)
Dewpoint: -3.0°C (27°F) [RH = 100%]
Pressure (altimeter): 29.85 inches Hg (1011.0 mb)
Winds: variable direction winds at 2 MPH (2 knots; 1.0 m/s)
Visibility: 0.25 miles (0.40 km)
Ceiling: indefinite ceiling with vertical visibility of 100 feet AGL
Clouds: obscured sky
Weather: FZFG  (freezing fog)

METAR text: UHHH 191700Z 28001MPS 4800 BR NSC M02/M02 Q1011 R23L/290045 NOSIG RMK QFE752/1003
Conditions at: UHHH (KHABAROVSK/NOVY , RU) observed 1700 UTC 19 April 2019
Temperature: -2.0°C (28°F)
Dewpoint: -2.0°C (28°F) [RH = 100%]
Pressure (altimeter): 29.85 inches Hg (1011.0 mb)
Winds: from the W (280 degrees) at 2 MPH (2 knots; 1.0 m/s)
Visibility: 2.98 miles (4.80 km)
Ceiling: at least 12,000 feet AGL
Clouds: sky clear below 12,000 feet AGL
Weather: BR  (mist)

METAR text: UHHH 191630Z 31001MPS 7000 NSC M02/M02 Q1011 R23L/290045 NOSIG RMK QFE752/1002
Conditions at: UHHH (KHABAROVSK/NOVY , RU) observed 1630 UTC 19 April 2019
Temperature: -2.0°C (28°F)
Dewpoint: -2.0°C (28°F) [RH = 100%]
Pressure (altimeter): 29.85 inches Hg (1011.0 mb)
Winds: from the NW (310 degrees) at 2 MPH (2 knots; 1.0 m/s)
Visibility: 4 miles ( 7 km)
Ceiling: at least 12,000 feet AGL
Clouds: sky clear below 12,000 feet AGL
Weather: no significant weather observed at this time

METAR text: UHHH 191600Z 30003MPS CAVOK M02/M02 Q1011 R23L/290045 NOSIG RMK QFE751/1002
Conditions at: UHHH (KHABAROVSK/NOVY , RU) observed 1600 UTC 19 April 2019
Temperature: -2.0°C (28°F)
Dewpoint: -2.0°C (28°F) [RH = 100%]
Pressure (altimeter): 29.85 inches Hg (1011.0 mb)
Winds: from the WNW (300 degrees) at 7 MPH (6 knots; 3.1 m/s)
Visibility: 6 or more miles (10+ km)
Ceiling: ceiling and visibility are OK
Clouds: unknown
Weather: no significant weather observed at this time

METAR text: UHHH 191530Z 29002MPS 9999 SCT026CB M02/M02 Q1011 R23L/290045 NOSIG RMK QFE751/1002
Conditions at: UHHH (KHABAROVSK/NOVY , RU) observed 1530 UTC 19 April 2019
Temperature: -2.0°C (28°F)
Dewpoint: -2.0°C (28°F) [RH = 100%]
Pressure (altimeter): 29.85 inches Hg (1011.0 mb)
Winds: from the WNW (290 degrees) at 5 MPH (4 knots; 2.1 m/s)
Visibility: 6 or more miles (10+ km)
Ceiling: at least 12,000 feet AGL
Clouds: scattered clouds at 2600 feet AGL
Weather: no significant weather observed at this time

METAR text: UHHH 191500Z 31002MPS 9000 SCT019CB M02/M02 Q1010 R23L/290045 NOSIG RMK QFE751/1002
Conditions at: UHHH (KHABAROVSK/NOVY , RU) observed 1500 UTC 19 April 2019
Temperature: -2.0°C (28°F)
Dewpoint: -2.0°C (28°F) [RH = 100%]
Pressure (altimeter): 29.82 inches Hg (1010.0 mb)
Winds: from the NW (310 degrees) at 5 MPH (4 knots; 2.1 m/s)
Visibility: 6 miles ( 9 km)
Ceiling: at least 12,000 feet AGL
Clouds: scattered clouds at 1900 feet AGL
Weather: no significant weather observed at this time

METAR text: UHHH 191430Z 28001MPS 9000 SCT046CB M01/M01 Q1010 R23L/290045 NOSIG RMK QFE751/1002
Conditions at: UHHH (KHABAROVSK/NOVY , RU) observed 1430 UTC 19 April 2019
Temperature: -1.0°C (30°F)
Dewpoint: -1.0°C (30°F) [RH = 100%]
Pressure (altimeter): 29.82 inches Hg (1010.0 mb)
Winds: from the W (280 degrees) at 2 MPH (2 knots; 1.0 m/s)
Visibility: 6 miles ( 9 km)
Ceiling: at least 12,000 feet AGL
Clouds: scattered clouds at 4600 feet AGL
Weather: no significant weather observed at this time

METAR text: UHHH 191400Z 24002MPS 6000 SCT045CB M01/M01 Q1010 R23L/290045 NOSIG RMK QFE751/1002
Conditions at: UHHH (KHABAROVSK/NOVY , RU) observed 1400 UTC 19 April 2019
Temperature: -1.0°C (30°F)
Dewpoint: -1.0°C (30°F) [RH = 100%]
Pressure (altimeter): 29.82 inches Hg (1010.0 mb)
Winds: from the WSW (240 degrees) at 5 MPH (4 knots; 2.1 m/s)
Visibility: 4 miles ( 6 km)
Ceiling: at least 12,000 feet AGL
Clouds: scattered clouds at 4500 feet AGL
Weather: no significant weather observed at this time

METAR text: UHHH 191330Z 23002MPS 2900 BR SCT046CB M02/M02 Q1010 R23L/290045 NOSIG RMK QFE751/1002
Conditions at: UHHH (KHABAROVSK/NOVY , RU) observed 1330 UTC 19 April 2019
Temperature: -2.0°C (28°F)
Dewpoint: -2.0°C (28°F) [RH = 100%]
Pressure (altimeter): 29.82 inches Hg (1010.0 mb)
Winds: from the SW (230 degrees) at 5 MPH (4 knots; 2.1 m/s)
Visibility: 1.80 miles (2.90 km)
Ceiling: at least 12,000 feet AGL
Clouds: scattered clouds at 4600 feet AGL
Weather: BR  (mist)

METAR text: UHHH 191300Z 00000MPS 9000 MIFG SCT038CB M01/M01 Q1010 R23L/290045 NOSIG RMK QFE751/1002
Conditions at: UHHH (KHABAROVSK/NOVY , RU) observed 1300 UTC 19 April 2019
Temperature: -1.0°C (30°F)
Dewpoint: -1.0°C (30°F) [RH = 100%]
Pressure (altimeter): 29.82 inches Hg (1010.0 mb)
Winds: calm
Visibility: 6 miles ( 9 km)
Ceiling: at least 12,000 feet AGL
Clouds: scattered clouds at 3800 feet AGL
Weather: MIFG  (shallow fog)

METAR text: UHHH 191230Z 00000MPS 9999 BKN050CB M00/M00 Q1010 R23L/290045 NOSIG RMK QFE751/1002
Conditions at: UHHH (KHABAROVSK/NOVY , RU) observed 1230 UTC 19 April 2019
Temperature: 0.0°C (32°F)
Dewpoint: 0.0°C (32°F) [RH = 100%]
Pressure (altimeter): 29.82 inches Hg (1010.0 mb)
Winds: calm
Visibility: 6 or more miles (10+ km)
Ceiling: 5000 feet AGL
Clouds: broken clouds at 5000 feet AGL
Weather: no significant weather observed at this time

METAR text: UHHH 191200Z 00000MPS 9000 -SHSN BKN042CB 00/00 Q1010 R23L/290045 NOSIG RMK QFE751/1002
Conditions at: UHHH (KHABAROVSK/NOVY , RU) observed 1200 UTC 19 April 2019
Temperature: 0.0°C (32°F)
Dewpoint: 0.0°C (32°F) [RH = 100%]
Pressure (altimeter): 29.82 inches Hg (1010.0 mb)
Winds: calm
Visibility: 6 miles ( 9 km)
Ceiling: 4200 feet AGL
Clouds: broken clouds at 4200 feet AGL
Weather: -SHSN  (light snow showers)

METAR text: UHHH 191130Z 27001MPS 3900 -SHSN BKN024CB 00/00 Q1010 R23L/290045 NOSIG RMK QFE751/1002
Conditions at: UHHH (KHABAROVSK/NOVY , RU) observed 1130 UTC 19 April 2019
Temperature: 0.0°C (32°F)
Dewpoint: 0.0°C (32°F) [RH = 100%]
Pressure (altimeter): 29.82 inches Hg (1010.0 mb)
Winds: from the W (270 degrees) at 2 MPH (2 knots; 1.0 m/s)
Visibility: 2.42 miles (3.89 km)
Ceiling: 2400 feet AGL
Clouds: broken clouds at 2400 feet AGL
Weather: -SHSN  (light snow showers)

METAR text: UHHH 191100Z VRB01MPS 6000 -SHSN BKN004CB M00/M00 Q1010 R23L/290045 NOSIG RMK QBB140 QFE751/1002
Conditions at: UHHH (KHABAROVSK/NOVY , RU) observed 1100 UTC 19 April 2019
Temperature: 0.0°C (32°F)
Dewpoint: 0.0°C (32°F) [RH = 100%]
Pressure (altimeter): 29.82 inches Hg (1010.0 mb)
Winds: variable direction winds at 2 MPH (2 knots; 1.0 m/s)
Visibility: 4 miles ( 6 km)
Ceiling: 400 feet AGL
Clouds: broken clouds at 400 feet AGL
Weather: -SHSN  (light snow showers)

METAR text: UHHH 191030Z VRB01MPS 9999 -SHSN BKN025CB 00/00 Q1010 R23L/290045 NOSIG RMK QFE751/1001
Conditions at: UHHH (KHABAROVSK/NOVY , RU) observed 1030 UTC 19 April 2019
Temperature: 0.0°C (32°F)
Dewpoint: 0.0°C (32°F) [RH = 100%]
Pressure (altimeter): 29.82 inches Hg (1010.0 mb)
Winds: variable direction winds at 2 MPH (2 knots; 1.0 m/s)
Visibility: 6 or more miles (10+ km)
Ceiling: 2500 feet AGL
Clouds: broken clouds at 2500 feet AGL
Weather: -SHSN  (light snow showers)

METAR text: UHHH 191000Z 04002MPS 340V070 3900 -SHSN FEW003 BKN026CB 00/00 Q1010 R23L/290045 NOSIG RMK QBB110 QFE751/1001
Conditions at: UHHH (KHABAROVSK/NOVY , RU) observed 1000 UTC 19 April 2019
Temperature: 0.0°C (32°F)
Dewpoint: 0.0°C (32°F) [RH = 100%]
Pressure (altimeter): 29.82 inches Hg (1010.0 mb)
Winds: from the NE (40 degrees) at 5 MPH (4 knots; 2.1 m/s)
Visibility: 2.42 miles (3.89 km)
Ceiling: 2600 feet AGL
Clouds: few clouds at 300 feet AGL
broken clouds at 2600 feet AGL
Weather: -SHSN  (light snow showers)

METAR text: UHHH 190930Z VRB01MPS 1900 R23L/1900D SHSN SCT012CB 00/00 Q1009 R23L/290045 TEMPO 1000 SHSN SCT003 BKN010CB RMK QFE751/1001
Conditions at: UHHH (KHABAROVSK/NOVY , RU) observed 0930 UTC 19 April 2019
Temperature: 0.0°C (32°F)
Dewpoint: 0.0°C (32°F) [RH = 100%]
Pressure (altimeter): 29.79 inches Hg (1009.0 mb)
Winds: variable direction winds at 2 MPH (2 knots; 1.0 m/s)
Visibility: 1.18 miles (1.90 km)
Ceiling: at least 12,000 feet AGL
Clouds: scattered clouds at 1200 feet AGL
Weather: SHSN  (snow showers)

METAR text: UHHH 190900Z 03002MPS 360V070 6000 -SHSN SCT009CB 01/00 Q1009 R23L/190055 NOSIG RMK QFE750/1001
Conditions at: UHHH (KHABAROVSK/NOVY , RU) observed 0900 UTC 19 April 2019
Temperature: 1.0°C (34°F)
Dewpoint: 0.0°C (32°F) [RH = 93%]
Pressure (altimeter): 29.79 inches Hg (1009.0 mb)
Winds: from the NNE (30 degrees) at 5 MPH (4 knots; 2.1 m/s)
Visibility: 4 miles ( 6 km)
Ceiling: at least 12,000 feet AGL
Clouds: scattered clouds at 900 feet AGL
Weather: -SHSN  (light snow showers)

METAR text: UHHH 190830Z 03003MPS 7000 -SHSN SCT010CB 01/00 Q1008 R23L/190055 NOSIG RMK QFE750/1000
Conditions at: UHHH (KHABAROVSK/NOVY , RU) observed 0830 UTC 19 April 2019
Temperature: 1.0°C (34°F)
Dewpoint: 0.0°C (32°F) [RH = 93%]
Pressure (altimeter): 29.76 inches Hg (1008.0 mb)
Winds: from the NNE (30 degrees) at 7 MPH (6 knots; 3.1 m/s)
Visibility: 4 miles ( 7 km)
Ceiling: at least 12,000 feet AGL
Clouds: scattered clouds at 1000 feet AGL
Weather: -SHSN  (light snow showers)

METAR text: UHHH 190800Z 30006MPS 9999 SCT013CB 03/M00 Q1008 R23L/190055 NOSIG RMK QFE750/1000
Conditions at: UHHH (KHABAROVSK/NOVY , RU) observed 0800 UTC 19 April 2019
Temperature: 3.0°C (37°F)
Dewpoint: 0.0°C (32°F) [RH = 81%]
Pressure (altimeter): 29.76 inches Hg (1008.0 mb)
Winds: from the WNW (300 degrees) at 14 MPH (12 knots; 6.2 m/s)
Visibility: 6 or more miles (10+ km)
Ceiling: at least 12,000 feet AGL
Clouds: scattered clouds at 1300 feet AGL
Weather: no significant weather observed at this time

METAR text: UHHH 190730Z 28007MPS 9999 SCT021CB 03/00 Q1008 R23L/190055 NOSIG RMK QFE750/1000
Conditions at: UHHH (KHABAROVSK/NOVY , RU) observed 0730 UTC 19 April 2019
Temperature: 3.0°C (37°F)
Dewpoint: 0.0°C (32°F) [RH = 81%]
Pressure (altimeter): 29.76 inches Hg (1008.0 mb)
Winds: from the W (280 degrees) at 16 MPH (14 knots; 7.2 m/s)
Visibility: 6 or more miles (10+ km)
Ceiling: at least 12,000 feet AGL
Clouds: scattered clouds at 2100 feet AGL
Weather: no significant weather observed at this time

METAR text: UHHH 190700Z 29006MPS 250V020 9999 SCT014CB 04/01 Q1007 R23L/190055 NOSIG RMK QFE749/0999
Conditions at: UHHH (KHABAROVSK/NOVY , RU) observed 0700 UTC 19 April 2019
Temperature: 4.0°C (39°F)
Dewpoint: 1.0°C (34°F) [RH = 81%]
Pressure (altimeter): 29.73 inches Hg (1007.0 mb)
Winds: from the WNW (290 degrees) at 14 MPH (12 knots; 6.2 m/s)
Visibility: 6 or more miles (10+ km)
Ceiling: at least 12,000 feet AGL
Clouds: scattered clouds at 1400 feet AGL
Weather: no significant weather observed at this time

METAR text: UHHH 190630Z 02003MPS 350V050 9999 BKN047CB 02/01 Q1007 R23L/190055 NOSIG RMK QFE749/0999
Conditions at: UHHH (KHABAROVSK/NOVY , RU) observed 0630 UTC 19 April 2019
Temperature: 2.0°C (36°F)
Dewpoint: 1.0°C (34°F) [RH = 93%]
Pressure (altimeter): 29.73 inches Hg (1007.0 mb)
Winds: from the NNE (20 degrees) at 7 MPH (6 knots; 3.1 m/s)
Visibility: 6 or more miles (10+ km)
Ceiling: 4700 feet AGL
Clouds: broken clouds at 4700 feet AGL
Weather: no significant weather observed at this time

METAR text: UHHH 190600Z 36002MPS 8000 -SHSN BKN016CB 02/00 Q1007 R23L/190055 NOSIG RMK QFE749/0999
Conditions at: UHHH (KHABAROVSK/NOVY , RU) observed 0600 UTC 19 April 2019
Temperature: 2.0°C (36°F)
Dewpoint: 0.0°C (32°F) [RH = 87%]
Pressure (altimeter): 29.73 inches Hg (1007.0 mb)
Winds: from the N (360 degrees) at 5 MPH (4 knots; 2.1 m/s)
Visibility: 5 miles ( 8 km)
Ceiling: 1600 feet AGL
Clouds: broken clouds at 1600 feet AGL
Weather: -SHSN  (light snow showers)

METAR text: UHHH 190530Z 34003MPS 290V020 9000 -SHSN BKN013CB 03/M01 Q1007 R23L/190055 NOSIG RMK QFE749/0998
Conditions at: UHHH (KHABAROVSK/NOVY , RU) observed 0530 UTC 19 April 2019
Temperature: 3.0°C (37°F)
Dewpoint: -1.0°C (30°F) [RH = 75%]
Pressure (altimeter): 29.73 inches Hg (1007.0 mb)
Winds: from the NNW (340 degrees) at 7 MPH (6 knots; 3.1 m/s)
Visibility: 6 miles ( 9 km)
Ceiling: 1300 feet AGL
Clouds: broken clouds at 1300 feet AGL
Weather: -SHSN  (light snow showers)

METAR text: UHHH 190500Z 34004MPS 310V020 9999 -SHSN BKN033CB 02/M01 Q1007 R23L/190055 NOSIG RMK QFE749/0998
Conditions at: UHHH (KHABAROVSK/NOVY , RU) observed 0500 UTC 19 April 2019
Temperature: 2.0°C (36°F)
Dewpoint: -1.0°C (30°F) [RH = 80%]
Pressure (altimeter): 29.73 inches Hg (1007.0 mb)
Winds: from the NNW (340 degrees) at 9 MPH (8 knots; 4.1 m/s)
Visibility: 6 or more miles (10+ km)
Ceiling: 3300 feet AGL
Clouds: broken clouds at 3300 feet AGL
Weather: -SHSN  (light snow showers)

METAR text: UHHH 190430Z 30006MPS 270V330 9999 BKN023CB 03/M02 Q1006 R23L/290045 NOSIG RMK QFE748/0998
Conditions at: UHHH (KHABAROVSK/NOVY , RU) observed 0430 UTC 19 April 2019
Temperature: 3.0°C (37°F)
Dewpoint: -2.0°C (28°F) [RH = 70%]
Pressure (altimeter): 29.70 inches Hg (1006.0 mb)
Winds: from the WNW (300 degrees) at 14 MPH (12 knots; 6.2 m/s)
Visibility: 6 or more miles (10+ km)
Ceiling: 2300 feet AGL
Clouds: broken clouds at 2300 feet AGL
Weather: no significant weather observed at this time

METAR text: UHHH 190400Z 29007MPS 260V320 9999 -SHSN BKN018CB 02/M01 Q1006 R23L/290045 NOSIG RMK QFE748/0998
Conditions at: UHHH (KHABAROVSK/NOVY , RU) observed 0400 UTC 19 April 2019
Temperature: 2.0°C (36°F)
Dewpoint: -1.0°C (30°F) [RH = 80%]
Pressure (altimeter): 29.70 inches Hg (1006.0 mb)
Winds: from the WNW (290 degrees) at 16 MPH (14 knots; 7.2 m/s)
Visibility: 6 or more miles (10+ km)
Ceiling: 1800 feet AGL
Clouds: broken clouds at 1800 feet AGL
Weather: -SHSN  (light snow showers)

METAR text: UHHH 190330Z 30005MPS 9000 -SHSN BKN015CB 01/00 Q1006 R23L/290045 NOSIG RMK QFE748/0997
Conditions at: UHHH (KHABAROVSK/NOVY , RU) observed 0330 UTC 19 April 2019
Temperature: 1.0°C (34°F)
Dewpoint: 0.0°C (32°F) [RH = 93%]
Pressure (altimeter): 29.70 inches Hg (1006.0 mb)
Winds: from the WNW (300 degrees) at 12 MPH (10 knots; 5.1 m/s)
Visibility: 6 miles ( 9 km)
Ceiling: 1500 feet AGL
Clouds: broken clouds at 1500 feet AGL
Weather: -SHSN  (light snow showers)

METAR text: UHHH 190300Z 29006MPS 270V340 9000 -SHSN BKN012 OVC027CB 01/00 Q1005 R23L/550340 NOSIG RMK QFE748/0997
Conditions at: UHHH (KHABAROVSK/NOVY , RU) observed 0300 UTC 19 April 2019
Temperature: 1.0°C (34°F)
Dewpoint: 0.0°C (32°F) [RH = 93%]
Pressure (altimeter): 29.68 inches Hg (1005.0 mb)
Winds: from the WNW (290 degrees) at 14 MPH (12 knots; 6.2 m/s)
Visibility: 6 miles ( 9 km)
Ceiling: 1200 feet AGL
Clouds: broken clouds at 1200 feet AGL
overcast cloud deck at 2700 feet AGL
Weather: -SHSN  (light snow showers)

METAR text: UHHH 190230Z 29005MPS 9999 -SHSN BKN012 OVC021CB 01/01 Q1005 R23L/550340 NOSIG RMK QFE747/0997
Conditions at: UHHH (KHABAROVSK/NOVY , RU) observed 0230 UTC 19 April 2019
Temperature: 1.0°C (34°F)
Dewpoint: 1.0°C (34°F) [RH = 100%]
Pressure (altimeter): 29.68 inches Hg (1005.0 mb)
Winds: from the WNW (290 degrees) at 12 MPH (10 knots; 5.1 m/s)
Visibility: 6 or more miles (10+ km)
Ceiling: 1200 feet AGL
Clouds: broken clouds at 1200 feet AGL
overcast cloud deck at 2100 feet AGL
Weather: -SHSN  (light snow showers)

METAR text: UHHH 190200Z 31004MPS 2700 -SHSN BKN010 OVC023CB 00/00 Q1005 R23L/550340 TEMPO 1000 SHSN RMK QFE747/0997
Conditions at: UHHH (KHABAROVSK/NOVY , RU) observed 0200 UTC 19 April 2019
Temperature: 0.0°C (32°F)
Dewpoint: 0.0°C (32°F) [RH = 100%]
Pressure (altimeter): 29.68 inches Hg (1005.0 mb)
Winds: from the NW (310 degrees) at 9 MPH (8 knots; 4.1 m/s)
Visibility: 1.68 miles (2.70 km)
Ceiling: 1000 feet AGL
Clouds: broken clouds at 1000 feet AGL
overcast cloud deck at 2300 feet AGL
Weather: -SHSN  (light snow showers)

METAR text: UHHH 190130Z 29005MPS 2900 R23L/1800D -SHSN BKN008 OVC022CB 00/00 Q1005 R23L/550340 NOSIG RMK QFE747/0996
Conditions at: UHHH (KHABAROVSK/NOVY , RU) observed 0130 UTC 19 April 2019
Temperature: 0.0°C (32°F)
Dewpoint: 0.0°C (32°F) [RH = 100%]
Pressure (altimeter): 29.68 inches Hg (1005.0 mb)
Winds: from the WNW (290 degrees) at 12 MPH (10 knots; 5.1 m/s)
Visibility: 1.80 miles (2.90 km)
Ceiling: 800 feet AGL
Clouds: broken clouds at 800 feet AGL
overcast cloud deck at 2200 feet AGL
Weather: -SHSN  (light snow showers)

METAR text: UHHH 190100Z 28005MPS 4600 -SHSN BKN008 OVC024CB 00/M00 Q1004 R23L/550340 NOSIG RMK QFE747/0996
Conditions at: UHHH (KHABAROVSK/NOVY , RU) observed 0100 UTC 19 April 2019
Temperature: 0.0°C (32°F)
Dewpoint: 0.0°C (32°F) [RH = 100%]
Pressure (altimeter): 29.65 inches Hg (1004.0 mb)
Winds: from the W (280 degrees) at 12 MPH (10 knots; 5.1 m/s)
Visibility: 2.86 miles (4.60 km)
Ceiling: 800 feet AGL
Clouds: broken clouds at 800 feet AGL
overcast cloud deck at 2400 feet AGL
Weather: -SHSN  (light snow showers)

METAR text: UHHH 190030Z 27005MPS 2600 -SHSN BKN007 OVC025CB M00/M00 Q1004 R23L/550340 NOSIG RMK QFE746/0995
Conditions at: UHHH (KHABAROVSK/NOVY , RU) observed 0030 UTC 19 April 2019
Temperature: 0.0°C (32°F)
Dewpoint: 0.0°C (32°F) [RH = 100%]
Pressure (altimeter): 29.65 inches Hg (1004.0 mb)
Winds: from the W (270 degrees) at 12 MPH (10 knots; 5.1 m/s)
Visibility: 1.62 miles (2.61 km)
Ceiling: 700 feet AGL
Clouds: broken clouds at 700 feet AGL
overcast cloud deck at 2500 feet AGL
Weather: -SHSN  (light snow showers)

METAR text: UHHH 190000Z 27005MPS 240V300 8000 -SHSN BKN007 OVC022CB M01/M01 Q1003 R23L/550340 NOSIG RMK QFE746/0995
Conditions at: UHHH (KHABAROVSK/NOVY , RU) observed 0000 UTC 19 April 2019
Temperature: -1.0°C (30°F)
Dewpoint: -1.0°C (30°F) [RH = 100%]
Pressure (altimeter): 29.62 inches Hg (1003.0 mb)
Winds: from the W (270 degrees) at 12 MPH (10 knots; 5.1 m/s)
Visibility: 5 miles ( 8 km)
Ceiling: 700 feet AGL
Clouds: broken clouds at 700 feet AGL
overcast cloud deck at 2200 feet AGL
Weather: -SHSN  (light snow showers)

METAR text: UHHH 182330Z 27005MPS 9000 -SHSN BKN007 OVC021CB M01/M01 Q1003 R23L/550340 NOSIG RMK QFE746/0994
Conditions at: UHHH (KHABAROVSK/NOVY , RU) observed 2330 UTC 18 April 2019
Temperature: -1.0°C (30°F)
Dewpoint: -1.0°C (30°F) [RH = 100%]
Pressure (altimeter): 29.62 inches Hg (1003.0 mb)
Winds: from the W (270 degrees) at 12 MPH (10 knots; 5.1 m/s)
Visibility: 6 miles ( 9 km)
Ceiling: 700 feet AGL
Clouds: broken clouds at 700 feet AGL
overcast cloud deck at 2100 feet AGL
Weather: -SHSN  (light snow showers)

METAR text: UHHH 182300Z 26006MPS 9000 BKN007 OVC021CB M01/M02 Q1002 R23L/550340 NOSIG RMK QFE745/0994
Conditions at: UHHH (KHABAROVSK/NOVY , RU) observed 2300 UTC 18 April 2019
Temperature: -1.0°C (30°F)
Dewpoint: -2.0°C (28°F) [RH = 93%]
Pressure (altimeter): 29.59 inches Hg (1002.0 mb)
Winds: from the W (260 degrees) at 14 MPH (12 knots; 6.2 m/s)
Visibility: 6 miles ( 9 km)
Ceiling: 700 feet AGL
Clouds: broken clouds at 700 feet AGL
overcast cloud deck at 2100 feet AGL
Weather: no significant weather observed at this time

METAR text: UHHH 182230Z 25007MPS 3700 -SHSN BKN007 OVC021CB M01/M02 Q1002 R23L/550340 NOSIG RMK QFE745/0994
Conditions at: UHHH (KHABAROVSK/NOVY , RU) observed 2230 UTC 18 April 2019
Temperature: -1.0°C (30°F)
Dewpoint: -2.0°C (28°F) [RH = 93%]
Pressure (altimeter): 29.59 inches Hg (1002.0 mb)
Winds: from the WSW (250 degrees) at 16 MPH (14 knots; 7.2 m/s)
Visibility: 2.30 miles (3.70 km)
Ceiling: 700 feet AGL
Clouds: broken clouds at 700 feet AGL
overcast cloud deck at 2100 feet AGL
Weather: -SHSN  (light snow showers)

METAR text: UHHH 182200Z 25008MPS 2800 -SHSN BKN007 OVC021CB M02/M02 Q1002 R23L/550340 NOSIG RMK QFE745/0993
Conditions at: UHHH (KHABAROVSK/NOVY , RU) observed 2200 UTC 18 April 2019
Temperature: -2.0°C (28°F)
Dewpoint: -2.0°C (28°F) [RH = 100%]
Pressure (altimeter): 29.59 inches Hg (1002.0 mb)
Winds: from the WSW (250 degrees) at 18 MPH (16 knots; 8.2 m/s)
Visibility: 1.74 miles (2.80 km)
Ceiling: 700 feet AGL
Clouds: broken clouds at 700 feet AGL
overcast cloud deck at 2100 feet AGL
Weather: -SHSN  (light snow showers)

METAR text: UHHH 182130Z 24009MPS 1200 0900NE R23L/0900U +SHSN BKN006 OVC021CB M02/M02 Q1001 R23L/550340 NOSIG RMK QFE744/0993
Conditions at: UHHH (KHABAROVSK/NOVY , RU) observed 2130 UTC 18 April 2019
Temperature: -2.0°C (28°F)
Dewpoint: -2.0°C (28°F) [RH = 100%]
Pressure (altimeter): 29.56 inches Hg (1001.0 mb)
Winds: from the WSW (240 degrees) at 20 MPH (17 knots; 8.7 m/s)
Visibility: 0.75 miles (1.21 km)
Ceiling: 600 feet AGL
Clouds: broken clouds at 600 feet AGL
overcast cloud deck at 2100 feet AGL
Weather: +SHSN  (heavy snow showers)

METAR text: UHHH 182100Z 24009MPS 1600 1000NE R23L/1000N SHSN BKN007 OVC021CB M02/M02 Q1001 R23L/550340 NOSIG RMK QFE744/0993
Conditions at: UHHH (KHABAROVSK/NOVY , RU) observed 2100 UTC 18 April 2019
Temperature: -2.0°C (28°F)
Dewpoint: -2.0°C (28°F) [RH = 100%]
Pressure (altimeter): 29.56 inches Hg (1001.0 mb)
Winds: from the WSW (240 degrees) at 20 MPH (17 knots; 8.7 m/s)
Visibility: 0.99 miles (1.59 km)
Ceiling: 700 feet AGL
Clouds: broken clouds at 700 feet AGL
overcast cloud deck at 2100 feet AGL
Weather: SHSN  (snow showers)

METAR text: UHHH 182030Z 24009MPS 1000 0900SW R23L/1000N +SHSN BKN007 OVC021CB M02/M02 Q1001 R23L/550340 NOSIG RMK QFE744/0992
Conditions at: UHHH (KHABAROVSK/NOVY , RU) observed 2030 UTC 18 April 2019
Temperature: -2.0°C (28°F)
Dewpoint: -2.0°C (28°F) [RH = 100%]
Pressure (altimeter): 29.56 inches Hg (1001.0 mb)
Winds: from the WSW (240 degrees) at 20 MPH (17 knots; 8.7 m/s)
Visibility: 0.62 miles (1.00 km)
Ceiling: 700 feet AGL
Clouds: broken clouds at 700 feet AGL
overcast cloud deck at 2100 feet AGL
Weather: +SHSN  (heavy snow showers)

METAR text: UHHH 182000Z 24009MPS 1300 1200SW R23L/1300D SHSN BKN007 OVC021CB M02/M02 Q1001 R23L/550340 TEMPO 1000 SHSN RMK QFE744/0992
Conditions at: UHHH (KHABAROVSK/NOVY , RU) observed 2000 UTC 18 April 2019
Temperature: -2.0°C (28°F)
Dewpoint: -2.0°C (28°F) [RH = 100%]
Pressure (altimeter): 29.56 inches Hg (1001.0 mb)
Winds: from the WSW (240 degrees) at 20 MPH (17 knots; 8.7 m/s)
Visibility: 0.81 miles (1.30 km)
Ceiling: 700 feet AGL
Clouds: broken clouds at 700 feet AGL
overcast cloud deck at 2100 feet AGL
Weather: SHSN  (snow showers)

METAR text: UHHH 181930Z 24009MPS 1400 1100SW SHSN BKN007 OVC021CB M01/M02 Q1000 R23L/290045 TEMPO 1000 SHSN RMK QFE744/0992
Conditions at: UHHH (KHABAROVSK/NOVY , RU) observed 1930 UTC 18 April 2019
Temperature: -1.0°C (30°F)
Dewpoint: -2.0°C (28°F) [RH = 93%]
Pressure (altimeter): 29.53 inches Hg (1000.0 mb)
Winds: from the WSW (240 degrees) at 20 MPH (17 knots; 8.7 m/s)
Visibility: 0.87 miles (1.40 km)
Ceiling: 700 feet AGL
Clouds: broken clouds at 700 feet AGL
overcast cloud deck at 2100 feet AGL
Weather: SHSN  (snow showers)

METAR text: UHHH 181900Z 24011MPS 2900 1200SW SHSN BKN007 OVC018CB M01/M02 Q1000 R23L/290045 TEMPO 1000 SHSN RMK QFE744/0992
Conditions at: UHHH (KHABAROVSK/NOVY , RU) observed 1900 UTC 18 April 2019
Temperature: -1.0°C (30°F)
Dewpoint: -2.0°C (28°F) [RH = 93%]
Pressure (altimeter): 29.53 inches Hg (1000.0 mb)
Winds: from the WSW (240 degrees) at 24 MPH (21 knots; 10.8 m/s)
Visibility: 1.80 miles (2.90 km)
Ceiling: 700 feet AGL
Clouds: broken clouds at 700 feet AGL
overcast cloud deck at 1800 feet AGL
Weather: SHSN  (snow showers)

METAR text: UHHH 181830Z 24010MPS 2600 -SHSN BKN007 OVC016CB M01/M02 Q1000 R23L/290045 TEMPO 1000 SHSN RMK QFE744/0992
Conditions at: UHHH (KHABAROVSK/NOVY , RU) observed 1830 UTC 18 April 2019
Temperature: -1.0°C (30°F)
Dewpoint: -2.0°C (28°F) [RH = 93%]
Pressure (altimeter): 29.53 inches Hg (1000.0 mb)
Winds: from the WSW (240 degrees) at 22 MPH (19 knots; 9.8 m/s)
Visibility: 1.62 miles (2.61 km)
Ceiling: 700 feet AGL
Clouds: broken clouds at 700 feet AGL
overcast cloud deck at 1600 feet AGL
Weather: -SHSN  (light snow showers)

METAR text: UHHH 181800Z 24009MPS 2400 -SHSN BKN007 OVC015CB M01/M01 Q1000 R23L/290045 TEMPO 1000 SHSN RMK QFE744/0992
Conditions at: UHHH (KHABAROVSK/NOVY , RU) observed 1800 UTC 18 April 2019
Temperature: -1.0°C (30°F)
Dewpoint: -1.0°C (30°F) [RH = 100%]
Pressure (altimeter): 29.53 inches Hg (1000.0 mb)
Winds: from the WSW (240 degrees) at 20 MPH (17 knots; 8.7 m/s)
Visibility: 1.49 miles (2.40 km)
Ceiling: 700 feet AGL
Clouds: broken clouds at 700 feet AGL
overcast cloud deck at 1500 feet AGL
Weather: -SHSN  (light snow showers)

METAR text: UHHH 181730Z 24009MPS 5000 -SHSN BKN008 OVC015CB M01/M01 Q1000 R23L/290045 TEMPO 1000 SHSN RMK QFE744/0992
Conditions at: UHHH (KHABAROVSK/NOVY , RU) observed 1730 UTC 18 April 2019
Temperature: -1.0°C (30°F)
Dewpoint: -1.0°C (30°F) [RH = 100%]
Pressure (altimeter): 29.53 inches Hg (1000.0 mb)
Winds: from the WSW (240 degrees) at 20 MPH (17 knots; 8.7 m/s)
Visibility: 3 miles ( 5 km)
Ceiling: 800 feet AGL
Clouds: broken clouds at 800 feet AGL
overcast cloud deck at 1500 feet AGL
Weather: -SHSN  (light snow showers)

METAR text: UHHH 181700Z 24009MPS 2900 -SHSN BKN007 OVC017CB M01/M01 Q1000 R23L/290045 TEMPO 1000 SHSN RMK QFE744/0992
Conditions at: UHHH (KHABAROVSK/NOVY , RU) observed 1700 UTC 18 April 2019
Temperature: -1.0°C (30°F)
Dewpoint: -1.0°C (30°F) [RH = 100%]
Pressure (altimeter): 29.53 inches Hg (1000.0 mb)
Winds: from the WSW (240 degrees) at 20 MPH (17 knots; 8.7 m/s)
Visibility: 1.80 miles (2.90 km)
Ceiling: 700 feet AGL
Clouds: broken clouds at 700 feet AGL
overcast cloud deck at 1700 feet AGL
Weather: -SHSN  (light snow showers)

METAR text: UHHH 181630Z 24008MPS 2400 -SHSN BKN005 OVC016CB M01/M01 Q1000 R23L/290045 TEMPO 1000 SHSN RMK QBB170 QFE744/0992
Conditions at: UHHH (KHABAROVSK/NOVY , RU) observed 1630 UTC 18 April 2019
Temperature: -1.0°C (30°F)
Dewpoint: -1.0°C (30°F) [RH = 100%]
Pressure (altimeter): 29.53 inches Hg (1000.0 mb)
Winds: from the WSW (240 degrees) at 18 MPH (16 knots; 8.2 m/s)
Visibility: 1.49 miles (2.40 km)
Ceiling: 500 feet AGL
Clouds: broken clouds at 500 feet AGL
overcast cloud deck at 1600 feet AGL
Weather: -SHSN  (light snow showers)

METAR text: UHHH 181600Z 24007MPS 2300 -SHSN BKN006 OVC012CB M00/M01 Q1000 R23L/290045 TEMPO 1000 SHSN RMK QBB180 QFE744/0992
Conditions at: UHHH (KHABAROVSK/NOVY , RU) observed 1600 UTC 18 April 2019
Temperature: 0.0°C (32°F)
Dewpoint: -1.0°C (30°F) [RH = 93%]
Pressure (altimeter): 29.53 inches Hg (1000.0 mb)
Winds: from the WSW (240 degrees) at 16 MPH (14 knots; 7.2 m/s)
Visibility: 1.43 miles (2.30 km)
Ceiling: 600 feet AGL
Clouds: broken clouds at 600 feet AGL
overcast cloud deck at 1200 feet AGL
Weather: -SHSN  (light snow showers)

METAR text: UHHH 181530Z 21003MPS 180V240 5000 -SHSN BKN005 OVC014CB M01/M01 Q1000 R23L/290045 TEMPO 1000 SHSN RMK QBB150 QFE744/0992
Conditions at: UHHH (KHABAROVSK/NOVY , RU) observed 1530 UTC 18 April 2019
Temperature: -1.0°C (30°F)
Dewpoint: -1.0°C (30°F) [RH = 100%]
Pressure (altimeter): 29.53 inches Hg (1000.0 mb)
Winds: from the SSW (210 degrees) at 7 MPH (6 knots; 3.1 m/s)
Visibility: 3 miles ( 5 km)
Ceiling: 500 feet AGL
Clouds: broken clouds at 500 feet AGL
overcast cloud deck at 1400 feet AGL
Weather: -SHSN  (light snow showers)

METAR text: UHHH 181500Z 22005MPS 2400 -SHSN FEW008 OVC014CB M00/M03 Q1001 R23L/090060 NOSIG RMK QFE744/0992
Conditions at: UHHH (KHABAROVSK/NOVY , RU) observed 1500 UTC 18 April 2019
Temperature: 0.0°C (32°F)
Dewpoint: -3.0°C (27°F) [RH = 80%]
Pressure (altimeter): 29.56 inches Hg (1001.0 mb)
Winds: from the SW (220 degrees) at 12 MPH (10 knots; 5.1 m/s)
Visibility: 1.49 miles (2.40 km)
Ceiling: 1400 feet AGL
Clouds: few clouds at 800 feet AGL
overcast cloud deck at 1400 feet AGL
Weather: -SHSN  (light snow showers)

METAR text: UHHH 181430Z 20003MPS 160V230 9999 BKN017CB 00/M04 Q1001 R23L/090060 NOSIG RMK QFE744/0992
Conditions at: UHHH (KHABAROVSK/NOVY , RU) observed 1430 UTC 18 April 2019
Temperature: 0.0°C (32°F)
Dewpoint: -4.0°C (25°F) [RH = 74%]
Pressure (altimeter): 29.56 inches Hg (1001.0 mb)
Winds: from the SSW (200 degrees) at 7 MPH (6 knots; 3.1 m/s)
Visibility: 6 or more miles (10+ km)
Ceiling: 1700 feet AGL
Clouds: broken clouds at 1700 feet AGL
Weather: no significant weather observed at this time

METAR text: UHHH 181400Z 21005MPS 170V240 9999 SCT021CB 01/M05 Q1001 R23L/090060 NOSIG RMK QFE744/0992
Conditions at: UHHH (KHABAROVSK/NOVY , RU) observed 1400 UTC 18 April 2019
Temperature: 1.0°C (34°F)
Dewpoint: -5.0°C (23°F) [RH = 64%]
Pressure (altimeter): 29.56 inches Hg (1001.0 mb)
Winds: from the SSW (210 degrees) at 12 MPH (10 knots; 5.1 m/s)
Visibility: 6 or more miles (10+ km)
Ceiling: at least 12,000 feet AGL
Clouds: scattered clouds at 2100 feet AGL
Weather: no significant weather observed at this time

METAR text: UHHH 181330Z 22006MPS 9999 SCT025CB 01/M05 Q1001 R23L/090060 NOSIG RMK QFE744/0993
Conditions at: UHHH (KHABAROVSK/NOVY , RU) observed 1330 UTC 18 April 2019
Temperature: 1.0°C (34°F)
Dewpoint: -5.0°C (23°F) [RH = 64%]
Pressure (altimeter): 29.56 inches Hg (1001.0 mb)
Winds: from the SW (220 degrees) at 14 MPH (12 knots; 6.2 m/s)
Visibility: 6 or more miles (10+ km)
Ceiling: at least 12,000 feet AGL
Clouds: scattered clouds at 2500 feet AGL
Weather: no significant weather observed at this time

METAR text: UHHH 181300Z 22004MPS 9999 SCT024CB 01/M05 Q1001 R23L/090060 NOSIG RMK QFE744/0993
Conditions at: UHHH (KHABAROVSK/NOVY , RU) observed 1300 UTC 18 April 2019
Temperature: 1.0°C (34°F)
Dewpoint: -5.0°C (23°F) [RH = 64%]
Pressure (altimeter): 29.56 inches Hg (1001.0 mb)
Winds: from the SW (220 degrees) at 9 MPH (8 knots; 4.1 m/s)
Visibility: 6 or more miles (10+ km)
Ceiling: at least 12,000 feet AGL
Clouds: scattered clouds at 2400 feet AGL
Weather: no significant weather observed at this time

METAR text: UHHH 181230Z 22006MPS 180V240 9999 SCT026CB 01/M05 Q1001 R23L/090060 NOSIG RMK QFE745/0993
Conditions at: UHHH (KHABAROVSK/NOVY , RU) observed 1230 UTC 18 April 2019
Temperature: 1.0°C (34°F)
Dewpoint: -5.0°C (23°F) [RH = 64%]
Pressure (altimeter): 29.56 inches Hg (1001.0 mb)
Winds: from the SW (220 degrees) at 14 MPH (12 knots; 6.2 m/s)
Visibility: 6 or more miles (10+ km)
Ceiling: at least 12,000 feet AGL
Clouds: scattered clouds at 2600 feet AGL
Weather: no significant weather observed at this time

METAR text: UHHH 181200Z 22008MPS 9999 SCT027CB 01/M05 Q1001 R23L/090060 NOSIG RMK QFE745/0993
Conditions at: UHHH (KHABAROVSK/NOVY , RU) observed 1200 UTC 18 April 2019
Temperature: 1.0°C (34°F)
Dewpoint: -5.0°C (23°F) [RH = 64%]
Pressure (altimeter): 29.56 inches Hg (1001.0 mb)
Winds: from the SW (220 degrees) at 18 MPH (16 knots; 8.2 m/s)
Visibility: 6 or more miles (10+ km)
Ceiling: at least 12,000 feet AGL
Clouds: scattered clouds at 2700 feet AGL
Weather: no significant weather observed at this time

METAR text: UHHH 181130Z 23010MPS 9999 SCT028CB 01/M05 Q1002 R23L/090060 NOSIG RMK QFE745/0993
Conditions at: UHHH (KHABAROVSK/NOVY , RU) observed 1130 UTC 18 April 2019
Temperature: 1.0°C (34°F)
Dewpoint: -5.0°C (23°F) [RH = 64%]
Pressure (altimeter): 29.59 inches Hg (1002.0 mb)
Winds: from the SW (230 degrees) at 22 MPH (19 knots; 9.8 m/s)
Visibility: 6 or more miles (10+ km)
Ceiling: at least 12,000 feet AGL
Clouds: scattered clouds at 2800 feet AGL
Weather: no significant weather observed at this time

METAR text: UHHH 181100Z 22008MPS 9999 SCT023CB 01/M02 Q1001 R23L/090060 NOSIG RMK QFE744/0993
Conditions at: UHHH (KHABAROVSK/NOVY , RU) observed 1100 UTC 18 April 2019
Temperature: 1.0°C (34°F)
Dewpoint: -2.0°C (28°F) [RH = 80%]
Pressure (altimeter): 29.56 inches Hg (1001.0 mb)
Winds: from the SW (220 degrees) at 18 MPH (16 knots; 8.2 m/s)
Visibility: 6 or more miles (10+ km)
Ceiling: at least 12,000 feet AGL
Clouds: scattered clouds at 2300 feet AGL
Weather: no significant weather observed at this time

METAR text: UHHH 181030Z 23009MPS 9999 SCT017CB 02/M02 Q1001 R23L/090060 NOSIG RMK QFE744/0993
Conditions at: UHHH (KHABAROVSK/NOVY , RU) observed 1030 UTC 18 April 2019
Temperature: 2.0°C (36°F)
Dewpoint: -2.0°C (28°F) [RH = 75%]
Pressure (altimeter): 29.56 inches Hg (1001.0 mb)
Winds: from the SW (230 degrees) at 20 MPH (17 knots; 8.7 m/s)
Visibility: 6 or more miles (10+ km)
Ceiling: at least 12,000 feet AGL
Clouds: scattered clouds at 1700 feet AGL
Weather: no significant weather observed at this time

METAR text: UHHH 181000Z 24009G14MPS 9999 SCT024CB 02/M03 Q1001 R23L/090060 NOSIG RMK QFE744/0992
Conditions at: UHHH (KHABAROVSK/NOVY , RU) observed 1000 UTC 18 April 2019
Temperature: 2.0°C (36°F)
Dewpoint: -3.0°C (27°F) [RH = 69%]
Pressure (altimeter): 29.56 inches Hg (1001.0 mb)
Winds: from the WSW (240 degrees) at 20 MPH (17 knots; 8.7 m/s)
gusting to 31 MPH (27 knots; 13.9 m/s)
Visibility: 6 or more miles (10+ km)
Ceiling: at least 12,000 feet AGL
Clouds: scattered clouds at 2400 feet AGL
Weather: no significant weather observed at this time

METAR text: UHHH 180930Z 23010MPS 9999 SCT038CB 03/M04 Q1000 R23L/090060 NOSIG RMK QFE743/0991
Conditions at: UHHH (KHABAROVSK/NOVY , RU) observed 0930 UTC 18 April 2019
Temperature: 3.0°C (37°F)
Dewpoint: -4.0°C (25°F) [RH = 60%]
Pressure (altimeter): 29.53 inches Hg (1000.0 mb)
Winds: from the SW (230 degrees) at 22 MPH (19 knots; 9.8 m/s)
Visibility: 6 or more miles (10+ km)
Ceiling: at least 12,000 feet AGL
Clouds: scattered clouds at 3800 feet AGL
Weather: no significant weather observed at this time

METAR text: UHHH 180900Z 23012MPS 9999 SCT031CB 04/M04 Q0999 R23L/090060 NOSIG RMK QFE743/0991
Conditions at: UHHH (KHABAROVSK/NOVY , RU) observed 0900 UTC 18 April 2019
Temperature: 4.0°C (39°F)
Dewpoint: -4.0°C (25°F) [RH = 56%]
Pressure (altimeter): 29.50 inches Hg (999.0 mb)
Winds: from the SW (230 degrees) at 26 MPH (23 knots; 11.8 m/s)
Visibility: 6 or more miles (10+ km)
Ceiling: at least 12,000 feet AGL
Clouds: scattered clouds at 3100 feet AGL
Weather: no significant weather observed at this time

METAR text: UHHH 180830Z 24009MPS 9999 SCT033CB 05/M03 Q0999 R23L/090060 NOSIG RMK QFE743/0991
Conditions at: UHHH (KHABAROVSK/NOVY , RU) observed 0830 UTC 18 April 2019
Temperature: 5.0°C (41°F)
Dewpoint: -3.0°C (27°F) [RH = 56%]
Pressure (altimeter): 29.50 inches Hg (999.0 mb)
Winds: from the WSW (240 degrees) at 20 MPH (17 knots; 8.7 m/s)
Visibility: 6 or more miles (10+ km)
Ceiling: at least 12,000 feet AGL
Clouds: scattered clouds at 3300 feet AGL
Weather: no significant weather observed at this time

METAR text: UHHH 180800Z 25010MPS 9999 SCT033CB 05/M03 Q0999 R23L/090060 NOSIG RMK QFE743/0991
Conditions at: UHHH (KHABAROVSK/NOVY , RU) observed 0800 UTC 18 April 2019
Temperature: 5.0°C (41°F)
Dewpoint: -3.0°C (27°F) [RH = 56%]
Pressure (altimeter): 29.50 inches Hg (999.0 mb)
Winds: from the WSW (250 degrees) at 22 MPH (19 knots; 9.8 m/s)
Visibility: 6 or more miles (10+ km)
Ceiling: at least 12,000 feet AGL
Clouds: scattered clouds at 3300 feet AGL
Weather: no significant weather observed at this time

METAR text: UHHH 180730Z 25011MPS 9999 SCT034CB 06/M02 Q0998 R23L/090060 NOSIG RMK QFE742/0990
Conditions at: UHHH (KHABAROVSK/NOVY , RU) observed 0730 UTC 18 April 2019
Temperature: 6.0°C (43°F)
Dewpoint: -2.0°C (28°F) [RH = 56%]
Pressure (altimeter): 29.47 inches Hg (998.0 mb)
Winds: from the WSW (250 degrees) at 24 MPH (21 knots; 10.8 m/s)
Visibility: 6 or more miles (10+ km)
Ceiling: at least 12,000 feet AGL
Clouds: scattered clouds at 3400 feet AGL
Weather: no significant weather observed at this time

Forecast for: AMD
Text: TAF AMD UHHH 191724Z 1918/2024 VRB01MPS 0300 FG VV002
Forecast period: 1800 to 2100 UTC 19 April 2019
Forecast type: FROM: standard forecast or significant change
Winds: variable direction winds at 2 MPH (2 knots; 1.0 m/s)
Visibility: 0.19 miles (0.31 km)
Ceiling: indefinite ceiling with vertical visibility of 200 feet AGL
Clouds: obscured sky
Weather: FG  (fog)
Text: FM192100 15005MPS 9999 SCT020
Forecast period: 2100 UTC 19 April 2019 to 0000 UTC 21 April 2019
Forecast type: FROM: standard forecast or significant change
Winds: from the SSE (150 degrees) at 12 MPH (10 knots; 5.1 m/s)
Visibility: 6 or more miles 10+ km)
Ceiling: at least 12,000 feet AGL
Clouds: scattered clouds at 2000 feet AGL
Weather: no significant weather forecast for this period